createdAt,value
2018-03-16T00:00:31.666Z,95.5
2018-03-16T00:05:31.658Z,95.1
2018-03-16T00:10:31.881Z,94.7
2018-03-16T00:15:31.885Z,95
2018-03-16T00:20:31.868Z,94.7
2018-03-16T00:25:31.894Z,94.7
2018-03-16T00:30:32.296Z,94.8
2018-03-16T00:35:32.125Z,94.6
2018-03-16T00:40:32.110Z,94.9
2018-03-16T00:45:32.256Z,95.1
2018-03-16T00:50:32.113Z,95.1
2018-03-16T00:55:32.175Z,95.1
2018-03-16T01:00:32.207Z,95.3
2018-03-16T01:05:32.271Z,95.5
2018-03-16T01:10:32.116Z,95
2018-03-16T01:15:32.252Z,95.7
2018-03-16T01:20:32.112Z,96.2
2018-03-16T01:25:32.240Z,96.4
2018-03-16T01:30:32.508Z,96.8
2018-03-16T01:35:32.290Z,96.7
2018-03-16T01:40:32.382Z,95.9
2018-03-16T01:45:32.598Z,96
2018-03-16T01:50:32.465Z,96.9
2018-03-16T01:55:32.278Z,96.4
2018-03-16T02:00:32.256Z,96.8
2018-03-16T02:05:32.297Z,97.4
2018-03-16T02:10:32.292Z,98.3
2018-03-16T02:15:32.311Z,97
2018-03-16T02:20:32.284Z,97.3
2018-03-16T02:25:32.499Z,96.9
2018-03-16T02:30:32.421Z,97
2018-03-16T02:35:32.457Z,97
2018-03-16T02:40:32.313Z,96.2
2018-03-16T02:45:32.316Z,96.5
2018-03-16T02:50:32.528Z,97.3
2018-03-16T02:55:32.495Z,98.2
2018-03-16T03:00:32.336Z,98.1
2018-03-16T03:05:36.672Z,98.6
2018-03-16T03:10:41.722Z,98
2018-03-16T03:15:36.841Z,98
2018-03-16T03:20:36.732Z,97.5
2018-03-16T03:25:36.650Z,98.1
2018-03-16T03:30:36.720Z,98
2018-03-16T03:35:36.650Z,97.3
2018-03-16T03:40:36.666Z,98.1
2018-03-16T03:45:36.843Z,98.5
2018-03-16T03:50:36.911Z,99.3
2018-03-16T03:55:36.674Z,98.7
2018-03-16T04:00:36.818Z,100
2018-03-16T04:05:36.857Z,100
2018-03-16T04:10:36.681Z,100
2018-03-16T04:15:36.874Z,100
2018-03-16T04:20:36.870Z,99.3
2018-03-16T04:25:36.675Z,98.7
2018-03-16T04:30:37.098Z,99.3
2018-03-16T04:35:36.692Z,99.8
2018-03-16T04:40:36.696Z,99.1
2018-03-16T04:45:36.709Z,99
2018-03-16T04:50:37.899Z,99.2
2018-03-16T04:55:36.718Z,99.2
2018-03-16T05:00:36.712Z,99.8
2018-03-16T05:05:36.718Z,99.9
2018-03-16T05:10:36.730Z,99.5
2018-03-16T05:15:36.792Z,99.8
2018-03-16T05:20:36.986Z,99.6
2018-03-16T05:25:36.788Z,100
2018-03-16T05:30:36.923Z,99.8
2018-03-16T05:35:36.791Z,99.5
2018-03-16T05:40:36.766Z,98.9
2018-03-16T05:45:36.801Z,100
2018-03-16T05:50:36.800Z,100
2018-03-16T05:55:36.816Z,99.9
2018-03-16T06:00:37.062Z,99.7
2018-03-16T06:05:36.814Z,100
2018-03-16T06:10:36.834Z,100
2018-03-16T06:15:36.821Z,100
2018-03-16T06:20:36.930Z,99.7
2018-03-16T06:25:36.814Z,98.5
2018-03-16T06:30:36.833Z,97.8
2018-03-16T06:35:36.797Z,98.4
2018-03-16T06:40:36.830Z,98.3
2018-03-16T06:45:37.029Z,97.8
2018-03-16T06:50:36.947Z,98.2
2018-03-16T06:55:36.819Z,97.9
2018-03-16T07:00:37.032Z,98.2
2018-03-16T07:05:36.826Z,97.5
2018-03-16T07:10:36.844Z,98.3
2018-03-16T07:15:36.824Z,97.4
2018-03-16T07:20:37.054Z,98.1
2018-03-16T07:25:36.857Z,97.7
2018-03-16T07:30:36.855Z,97.2
2018-03-16T07:35:36.843Z,97.9
2018-03-16T07:40:36.870Z,97.9
2018-03-16T07:45:36.850Z,97.5
2018-03-16T07:50:36.874Z,97.3
2018-03-16T07:55:36.853Z,96.9
2018-03-16T08:00:40.390Z,96.1
2018-03-16T08:05:45.547Z,98.1
2018-03-16T08:10:40.286Z,96.9
2018-03-16T08:15:40.522Z,97.6
2018-03-16T08:20:40.394Z,95.9
2018-03-16T08:25:40.302Z,95.9
2018-03-16T08:30:40.563Z,93.4
2018-03-16T08:35:40.277Z,92.7
2018-03-16T08:40:40.289Z,91.2
2018-03-16T08:45:40.314Z,90.1
2018-03-16T08:50:40.302Z,88.9
2018-03-16T08:55:40.285Z,87
2018-03-16T09:00:40.507Z,84.8
2018-03-16T09:05:40.401Z,85.7
2018-03-16T09:10:40.326Z,85.8
2018-03-16T09:15:40.274Z,85.7
2018-03-16T09:20:40.551Z,85.3
2018-03-16T09:25:40.301Z,85.8
2018-03-16T09:30:40.322Z,85.5
2018-03-16T09:35:40.392Z,85.8
2018-03-16T09:40:40.409Z,86.9
2018-03-16T09:45:40.349Z,87
2018-03-16T09:50:40.609Z,85.2
2018-03-16T09:55:40.389Z,85.1
2018-03-16T10:00:40.396Z,86.1
2018-03-16T10:05:40.407Z,85.2
2018-03-16T10:10:40.416Z,86.3
2018-03-16T10:15:40.412Z,85
2018-03-16T10:20:40.652Z,85.9
2018-03-16T10:25:40.708Z,84.4
2018-03-16T10:30:40.604Z,83.3
2018-03-16T10:35:40.726Z,84.4
2018-03-16T10:40:40.598Z,83.1
2018-03-16T10:45:40.606Z,83.7
2018-03-16T10:50:40.723Z,82.8
2018-03-16T10:55:40.599Z,82.8
2018-03-16T11:00:40.762Z,82.2
2018-03-16T11:05:40.604Z,81.4
2018-03-16T11:10:40.720Z,80.4
2018-03-16T11:15:40.820Z,79.6
2018-03-16T11:20:40.835Z,79.8
2018-03-16T11:25:40.628Z,78.2
2018-03-16T11:30:40.619Z,80.1
2018-03-16T11:35:40.627Z,79.3
2018-03-16T11:40:40.638Z,78.8
2018-03-16T11:45:40.690Z,80.4
2018-03-16T11:50:40.612Z,80
2018-03-16T11:55:40.788Z,80.4
2018-03-16T12:00:40.899Z,79.2
2018-03-16T12:05:40.825Z,79.7
2018-03-16T12:10:40.651Z,78.4
2018-03-16T12:15:40.951Z,77.4
2018-03-16T12:20:40.872Z,76.7
2018-03-16T12:25:40.646Z,77.5
2018-03-16T12:30:40.663Z,76
2018-03-16T12:35:40.715Z,76.3
2018-03-16T12:40:40.685Z,74.5
2018-03-16T12:45:40.768Z,75.1
2018-03-16T12:50:41.988Z,74.7
2018-03-16T12:55:47.262Z,74.1
2018-03-16T13:00:42.065Z,75
2018-03-16T13:05:42.286Z,74.3
2018-03-16T13:10:42.068Z,73.1
2018-03-16T13:15:42.080Z,73
2018-03-16T13:20:42.282Z,72.5
2018-03-16T13:25:42.156Z,73.6
2018-03-16T13:30:42.091Z,72.9
2018-03-16T13:35:42.100Z,71.4
2018-03-16T13:40:42.093Z,71.4
2018-03-16T13:45:42.345Z,71.8
2018-03-16T13:50:42.242Z,72.7
2018-03-16T13:55:42.120Z,70
2018-03-16T14:00:42.098Z,69.4
2018-03-16T14:05:42.382Z,70.1
2018-03-16T14:10:42.132Z,70.7
2018-03-16T14:15:42.108Z,69.1
2018-03-16T14:20:42.099Z,69.7
2018-03-16T14:25:42.096Z,69.3
2018-03-16T14:30:42.126Z,70.1
2018-03-16T14:35:42.139Z,70.1
2018-03-16T14:40:42.137Z,71.8
2018-03-16T14:45:42.154Z,71.6
2018-03-16T14:50:42.129Z,70.4
2018-03-16T14:55:42.143Z,69.4
2018-03-16T15:00:42.154Z,69.2
2018-03-16T15:05:42.249Z,67.4
2018-03-16T15:10:42.243Z,67.7
2018-03-16T15:15:42.241Z,68.6
2018-03-16T15:20:42.243Z,69.4
2018-03-16T15:25:42.251Z,69.4
2018-03-16T15:30:42.460Z,70.3
2018-03-16T15:35:42.228Z,72
2018-03-16T15:40:42.420Z,76.1
2018-03-16T15:45:42.223Z,78.8
2018-03-16T15:50:42.230Z,79.3
2018-03-16T15:55:43.238Z,80.6
2018-03-16T16:00:42.240Z,79.9
2018-03-16T16:05:42.246Z,82.1
2018-03-16T16:10:42.237Z,82
2018-03-16T16:15:42.258Z,81.9
2018-03-16T16:20:42.220Z,81.2
2018-03-16T16:25:42.244Z,80.9
2018-03-16T16:30:42.234Z,81.7
2018-03-16T16:35:42.261Z,82.3
2018-03-16T16:40:42.262Z,83.4
2018-03-16T16:45:42.252Z,82.9
2018-03-16T16:50:42.831Z,83.2
2018-03-16T16:55:42.255Z,84.2
2018-03-16T17:00:42.273Z,85.7
2018-03-16T17:05:42.257Z,85.4
2018-03-16T17:10:42.278Z,86.2
2018-03-16T17:15:42.265Z,84
2018-03-16T17:20:42.261Z,83.2
2018-03-16T17:25:42.272Z,81.9
2018-03-16T17:30:42.290Z,83
2018-03-16T17:35:42.271Z,82.8
2018-03-16T17:40:42.290Z,82.7
2018-03-16T17:45:42.324Z,83.3
2018-03-16T17:50:44.865Z,83.4
2018-03-16T17:55:49.964Z,84
2018-03-16T18:00:44.987Z,85.2
2018-03-16T18:05:45.009Z,85.8
2018-03-16T18:10:44.880Z,86.3
2018-03-16T18:15:44.883Z,86.4
2018-03-16T18:20:45.119Z,86.1
2018-03-16T18:25:44.892Z,85.7
2018-03-16T18:30:44.906Z,86.5
2018-03-16T18:35:44.923Z,87.8
2018-03-16T18:40:44.866Z,88.2
2018-03-16T18:45:44.892Z,88.7
2018-03-16T18:50:44.906Z,87.4
2018-03-16T18:55:44.939Z,86.5
2018-03-16T19:00:44.917Z,86.8
2018-03-16T19:05:45.086Z,87.1
2018-03-16T19:10:44.955Z,86.9
2018-03-16T19:15:44.922Z,87.6
2018-03-16T19:20:44.945Z,87.5
2018-03-16T19:25:44.918Z,88.3
2018-03-16T19:30:45.175Z,88.4
2018-03-16T19:35:44.938Z,88.6
2018-03-16T19:40:45.126Z,89.8
2018-03-16T19:45:44.918Z,89.5
2018-03-16T19:50:44.960Z,89.2
2018-03-16T19:55:44.979Z,89.7
2018-03-16T20:00:44.960Z,90.6
2018-03-16T20:05:44.947Z,89.7
2018-03-16T20:10:44.985Z,90.4
2018-03-16T20:15:44.965Z,90.1
2018-03-16T20:20:44.982Z,91.8
2018-03-16T20:25:44.955Z,91.4
2018-03-16T20:30:44.950Z,91.2
2018-03-16T20:35:45.211Z,90.9
2018-03-16T20:40:44.973Z,91.2
2018-03-16T20:45:44.981Z,91
2018-03-16T20:50:44.943Z,91.2
2018-03-16T20:55:44.981Z,91
2018-03-16T21:00:45.061Z,91.3
2018-03-16T21:05:45.219Z,93.1
2018-03-16T21:10:45.251Z,92.3
2018-03-16T21:15:45.242Z,92.2
2018-03-16T21:20:45.195Z,92.6
2018-03-16T21:25:45.276Z,90.9
2018-03-16T21:30:45.253Z,90.9
2018-03-16T21:35:45.269Z,91.1
2018-03-16T21:40:45.260Z,92.7
2018-03-16T21:45:45.230Z,92.2
2018-03-16T21:50:45.230Z,93.2
2018-03-16T21:55:45.497Z,93
2018-03-16T22:00:45.282Z,92.5
2018-03-16T22:05:45.264Z,92.4
2018-03-16T22:10:45.261Z,92.6
2018-03-16T22:15:45.281Z,92.3
2018-03-16T22:20:45.297Z,93.9
2018-03-16T22:25:45.282Z,93.4
2018-03-16T22:30:45.286Z,93.5
2018-03-16T22:35:45.268Z,93.1
2018-03-16T22:40:45.240Z,93.6
2018-03-16T22:45:45.275Z,94
2018-03-16T22:50:48.648Z,93.3
2018-03-16T22:55:53.734Z,93.3
2018-03-16T23:00:48.684Z,93.6
2018-03-16T23:05:48.648Z,93.9
2018-03-16T23:10:48.664Z,93.3
2018-03-16T23:15:48.652Z,94.8
2018-03-16T23:20:48.694Z,94.9
2018-03-16T23:25:48.674Z,94.8
2018-03-16T23:30:48.639Z,94.8
2018-03-16T23:35:48.667Z,93.9
2018-03-16T23:40:48.689Z,93.7
2018-03-16T23:45:48.729Z,94.1
2018-03-16T23:50:48.675Z,93.5
2018-03-16T23:55:48.688Z,93.7
